Time;durP1;ratioP1;P1;durP2;ratioP2;P2;SDS_P1;SDS_P2;PMS_P1;PMS_P2;Temp;Humidity;BMP_temperature;BMP_pressure;BME280_temperature;BME280_humidity;BME280_pressure;Samples;Min_cycle;Max_cycle;Signal;HPM_P1;HPM_P2
2022/12/20 00:01:45;;;;;;;10.27;4.95;;;;;;;6.21;100.00;99309.00;4997537;28;20033;-76
2022/12/20 00:04:11;;;;;;;9.98;5.18;;;;;;;6.28;100.00;99317.22;4992023;28;20034;-78
2022/12/20 00:06:37;;;;;;;9.48;4.80;;;;;;;6.23;100.00;99312.31;5005585;28;20030;-76
2022/12/20 00:09:05;;;;;;;10.82;5.53;;;;;;;6.17;100.00;99309.47;5000023;28;20040;-78
2022/12/20 00:11:31;;;;;;;11.82;4.93;;;;;;;6.05;100.00;99300.84;4994955;28;20096;-77
2022/12/20 00:13:57;;;;;;;10.00;5.05;;;;;;;6.05;100.00;99306.22;5013469;28;20033;-76
2022/12/20 00:16:24;;;;;;;12.32;5.82;;;;;;;5.93;100.00;99297.59;5017511;28;20467;-76
2022/12/20 00:18:52;;;;;;;11.07;4.53;;;;;;;6.00;100.00;99293.28;5001295;28;20053;-76
2022/12/20 00:21:18;;;;;;;12.57;5.20;;;;;;;6.08;100.00;99282.56;5005426;28;20034;-76
2022/12/20 00:23:43;;;;;;;13.23;5.43;;;;;;;6.09;100.00;99280.72;5009587;28;20017;-78
2022/12/20 00:26:11;;;;;;;11.38;4.80;;;;;;;6.18;100.00;99277.03;5009565;28;20022;-75
2022/12/20 00:28:38;;;;;;;11.32;5.25;;;;;;;6.23;100.00;99296.22;5006955;28;20120;-77
2022/12/20 00:31:05;;;;;;;10.73;5.03;;;;;;;6.18;100.00;99287.78;4997402;28;20395;-77
2022/12/20 00:33:31;;;;;;;11.02;5.40;;;;;;;6.09;100.00;99281.56;5005106;28;20029;-76
2022/12/20 00:35:57;;;;;;;16.85;4.90;;;;;;;5.93;100.00;99287.72;5013087;28;20028;-76
2022/12/20 00:38:24;;;;;;;7.28;4.68;;;;;;;5.85;100.00;99290.34;5009959;28;21618;-76
2022/12/20 00:41:29;;;;;;;9.80;5.00;;;;;;;5.73;100.00;99275.50;5012221;28;20013;-76
2022/12/20 00:43:55;;;;;;;14.02;5.70;;;;;;;5.63;100.00;99258.69;4978278;28;20042;-76
2022/12/20 00:46:22;;;;;;;10.73;5.00;;;;;;;5.64;100.00;99265.75;4995011;28;20091;-76
2022/12/20 00:48:48;;;;;;;10.73;4.78;;;;;;;5.71;100.00;99259.56;4987766;28;20026;-76
2022/12/20 00:51:19;;;;;;;11.98;5.30;;;;;;;5.74;100.00;99262.91;5002588;28;20096;-76
2022/12/20 00:53:45;;;;;;;10.85;5.43;;;;;;;5.88;100.00;99273.06;5026779;28;20406;-76
2022/12/20 00:56:11;;;;;;;8.68;4.82;;;;;;;5.86;100.00;99286.63;5033188;28;20017;-77
2022/12/20 00:58:40;;;;;;;7.85;4.72;;;;;;;5.80;100.00;99276.56;4999727;28;20068;-77
2022/12/20 01:01:17;;;;;;;11.80;5.07;;;;;;;5.68;100.00;99275.97;5012573;28;20388;-77
2022/12/20 01:03:42;;;;;;;10.82;5.05;;;;;;;5.57;100.00;99262.00;5014592;28;20519;-78
2022/12/20 01:06:09;;;;;;;10.82;5.45;;;;;;;5.56;100.00;99249.59;5011775;28;20065;-76
2022/12/20 01:08:34;;;;;;;9.70;5.00;;;;;;;5.69;100.00;99266.09;5006367;28;20022;-77
2022/12/20 01:11:05;;;;;;;13.73;4.88;;;;;;;5.69;100.00;99268.78;5008626;28;20029;-76
2022/12/20 01:13:32;;;;;;;12.05;5.80;;;;;;;5.63;100.00;99269.41;5003456;28;20034;-76
2022/12/20 01:16:04;;;;;;;9.30;5.05;;;;;;;5.68;100.00;99284.03;5003561;28;20022;-76
2022/12/20 01:18:29;;;;;;;9.30;4.70;;;;;;;5.58;100.00;99266.38;4999816;28;20022;-78
2022/12/20 01:21:03;;;;;;;10.75;5.13;;;;;;;5.58;100.00;99271.75;5010816;28;20029;-76
2022/12/20 01:23:28;;;;;;;10.82;5.40;;;;;;;5.59;100.00;99278.81;5010714;28;20036;-76
2022/12/20 01:25:54;;;;;;;9.38;5.03;;;;;;;5.63;100.00;99291.75;4994541;28;20026;-78
2022/12/20 01:28:19;;;;;;;11.00;5.47;;;;;;;5.50;100.00;99280.59;5011178;28;20033;-77
2022/12/20 01:30:44;;;;;;;10.93;5.63;;;;;;;5.43;100.00;99275.03;5012436;28;20030;-76
2022/12/20 01:33:09;;;;;;;11.10;5.10;;;;;;;5.41;100.00;99270.81;5012133;28;20530;-76
2022/12/20 01:35:35;;;;;;;10.65;5.53;;;;;;;5.30;100.00;99263.03;5012511;28;20034;-76
2022/12/20 01:38:00;;;;;;;11.80;6.32;;;;;;;5.34;100.00;99278.66;5004610;28;20060;-76
2022/12/20 01:40:26;;;;;;;16.95;6.45;;;;;;;5.15;100.00;99262.78;4992252;28;20434;-77
2022/12/20 01:42:51;;;;;;;10.98;5.50;;;;;;;5.03;100.00;99271.09;5012424;28;20461;-75
2022/12/20 01:45:25;;;;;;;12.35;5.80;;;;;;;4.84;100.00;99268.56;5006560;28;20576;-77
2022/12/20 01:47:51;;;;;;;13.20;6.35;;;;;;;4.73;100.00;99266.13;5003669;28;20026;-77
2022/12/20 01:50:16;;;;;;;13.55;6.03;;;;;;;4.76;100.00;99285.44;5000874;28;20123;-77
2022/12/20 01:52:43;;;;;;;11.15;5.40;;;;;;;4.66;100.00;99291.88;5000540;28;20124;-76
2022/12/20 01:55:17;;;;;;;13.82;6.00;;;;;;;4.60;100.00;99283.44;5010342;28;20438;-76
2022/12/20 01:58:11;;;;;;;13.75;6.15;;;;;;;4.59;100.00;99270.22;4998494;28;20513;-76
2022/12/20 02:00:36;;;;;;;12.63;5.03;;;;;;;4.79;100.00;99260.16;4993095;28;20408;-76
2022/12/20 02:03:12;;;;;;;13.27;5.57;;;;;;;4.82;100.00;99249.13;4998878;28;20033;-78
2022/12/20 02:05:40;;;;;;;13.50;6.18;;;;;;;4.85;100.00;99254.19;4991973;28;20045;-76
2022/12/20 02:08:07;;;;;;;10.32;5.57;;;;;;;4.89;100.00;99252.88;4993136;28;20033;-77
2022/12/20 02:11:02;;;;;;;8.98;5.93;;;;;;;4.86;100.00;99249.66;5006889;28;20088;-76
2022/12/20 02:13:49;;;;;;;11.73;6.00;;;;;;;4.79;100.00;99262.84;5024661;28;20076;-76
2022/12/20 02:16:23;;;;;;;12.43;5.97;;;;;;;4.70;100.00;99255.72;5010248;28;20029;-76
2022/12/20 02:19:20;;;;;;;12.98;6.25;;;;;;;4.64;100.00;99234.88;5008060;28;20058;-77
2022/12/20 02:22:15;;;;;;;13.48;6.03;;;;;;;4.59;100.00;99238.91;4996950;28;20045;-77
2022/12/20 02:25:05;;;;;;;9.73;5.40;;;;;;;4.66;100.00;99244.47;5007431;28;20034;-76
2022/12/20 02:27:41;;;;;;;14.50;5.63;;;;;;;4.77;100.00;99244.25;5009949;28;20026;-76
2022/12/20 02:30:13;;;;;;;9.93;5.25;;;;;;;4.75;100.00;99238.19;5012899;28;20084;-76
2022/12/20 02:32:50;;;;;;;11.38;6.20;;;;;;;4.68;100.00;99238.97;4989362;28;20037;-77
2022/12/20 02:35:21;;;;;;;12.77;4.97;;;;;;;4.74;100.00;99232.97;5021912;28;20033;-76
2022/12/20 02:37:48;;;;;;;12.63;5.55;;;;;;;4.72;100.00;99224.25;5029469;28;20028;-76
2022/12/20 02:40:18;;;;;;;12.23;5.30;;;;;;;4.60;100.00;99219.13;5032636;28;20034;-76
2022/12/20 02:42:44;;;;;;;8.90;5.10;;;;;;;4.66;100.00;99219.50;5025102;28;20056;-76
2022/12/20 02:45:16;;;;;;;12.15;5.45;;;;;;;4.71;100.00;99233.28;5019282;28;20046;-77
2022/12/20 02:47:54;;;;;;;10.93;5.55;;;;;;;4.69;100.00;99237.94;5011128;28;20070;-76
2022/12/20 02:50:29;;;;;;;10.20;5.40;;;;;;;4.55;100.00;99217.91;5007302;28;20030;-78
2022/12/20 02:52:55;;;;;;;11.20;5.13;;;;;;;4.51;100.00;99214.72;5012886;28;20045;-76
2022/12/20 02:55:37;;;;;;;10.23;4.97;;;;;;;4.48;100.00;99209.66;5013740;28;20048;-75
2022/12/20 02:58:08;;;;;;;8.77;4.93;;;;;;;4.59;100.00;99224.66;4998547;28;20021;-76
2022/12/20 03:00:40;;;;;;;8.88;5.03;;;;;;;4.49;100.00;99211.34;5010406;28;20026;-76
2022/12/20 03:03:21;;;;;;;10.93;5.70;;;;;;;4.51;100.00;99217.38;5014235;28;20026;-77
2022/12/20 03:05:48;;;;;;;9.05;4.93;;;;;;;4.53;100.00;99223.44;5012314;28;20030;-75
2022/12/20 03:08:13;;;;;;;14.60;6.05;;;;;;;4.47;100.00;99213.31;5007530;28;20080;-75
2022/12/20 03:10:39;;;;;;;12.48;5.78;;;;;;;4.44;100.00;99202.09;5005700;28;20476;-76
2022/12/20 03:13:04;;;;;;;11.98;6.18;;;;;;;4.33;100.00;99201.31;5010725;28;20026;-76
2022/12/20 03:15:29;;;;;;;9.43;5.68;;;;;;;4.33;100.00;99200.50;5009959;28;20057;-75
2022/12/20 03:17:54;;;;;;;13.18;6.20;;;;;;;4.29;100.00;99186.53;5015230;28;20052;-77
2022/12/20 03:20:20;;;;;;;12.02;6.22;;;;;;;4.32;100.00;99177.34;5003140;28;20077;-77
2022/12/20 03:22:45;;;;;;;10.30;5.80;;;;;;;4.42;100.00;99182.63;5005617;28;20034;-76
2022/12/20 03:25:10;;;;;;;13.18;7.13;;;;;;;4.43;100.00;99201.25;5010202;28;20488;-76
2022/12/20 03:27:36;;;;;;;12.35;5.90;;;;;;;4.43;100.00;99195.03;5011650;28;20026;-76
2022/12/20 03:30:02;;;;;;;15.07;5.25;;;;;;;4.65;100.00;99193.72;4992909;28;20046;-77
2022/12/20 03:32:27;;;;;;;9.48;5.38;;;;;;;4.77;100.00;99154.94;4992715;28;20026;-75
2022/12/20 03:34:52;;;;;;;8.40;4.47;;;;;;;4.95;100.00;99174.50;5010385;28;20344;-77
2022/12/20 03:37:18;;;;;;;10.25;5.13;;;;;;;5.14;100.00;99177.97;5010331;28;20041;-75
2022/12/20 03:39:43;;;;;;;10.02;4.97;;;;;;;5.21;100.00;99178.97;5005397;28;20022;-75
2022/12/20 03:42:08;;;;;;;8.63;4.95;;;;;;;5.23;100.00;99185.03;5009585;28;20368;-77
2022/12/20 03:44:33;;;;;;;10.43;4.90;;;;;;;5.41;100.00;99187.63;5009965;28;20030;-76
2022/12/20 03:46:59;;;;;;;8.07;4.40;;;;;;;5.40;100.00;99189.50;5021800;28;20002;-79
2022/12/20 03:49:24;;;;;;;11.25;4.80;;;;;;;5.38;100.00;99196.84;5014189;28;20030;-75
2022/12/20 03:51:49;;;;;;;9.27;4.50;;;;;;;5.31;100.00;99189.59;5023144;28;20152;-76
2022/12/20 03:54:15;;;;;;;10.40;4.40;;;;;;;5.35;100.00;99191.81;5028265;28;20080;-76
2022/12/20 03:56:40;;;;;;;10.02;4.35;;;;;;;5.31;100.00;99179.69;5021946;28;20006;-77
2022/12/20 03:59:05;;;;;;;10.63;4.50;;;;;;;5.43;100.00;99181.13;5023853;28;20057;-76
2022/12/20 04:01:35;;;;;;;8.70;4.65;;;;;;;5.48;100.00;99181.47;5013966;28;20037;-77
2022/12/20 04:04:01;;;;;;;11.65;4.57;;;;;;;5.49;100.00;99161.66;5014704;28;20028;-77
2022/12/20 04:06:26;;;;;;;8.80;4.78;;;;;;;5.49;100.00;99155.47;5017981;28;20022;-75
2022/12/20 04:08:52;;;;;;;10.35;4.43;;;;;;;5.43;100.00;99172.22;4994842;28;20038;-76
2022/12/20 04:11:17;;;;;;;10.48;4.55;;;;;;;5.28;100.00;99163.94;5005944;28;20051;-76
2022/12/20 04:13:48;;;;;;;9.13;4.85;;;;;;;5.21;100.00;99149.47;5009140;28;20030;-76
2022/12/20 04:16:16;;;;;;;8.43;4.43;;;;;;;5.26;100.00;99155.19;5012347;28;20022;-76
2022/12/20 04:18:41;;;;;;;10.52;5.03;;;;;;;5.23;100.00;99151.00;5002724;28;20037;-77
2022/12/20 04:21:07;;;;;;;7.18;4.30;;;;;;;5.33;100.00;99156.25;4993851;28;20100;-78
2022/12/20 04:23:37;;;;;;;7.72;4.07;;;;;;;5.19;100.00;99151.50;5010059;28;20093;-78
2022/12/20 04:26:05;;;;;;;10.68;5.00;;;;;;;5.21;100.00;99149.47;5010835;28;20045;-78
2022/12/20 04:28:30;;;;;;;8.50;4.40;;;;;;;5.21;100.00;99150.34;4998676;28;20105;-78
2022/12/20 04:30:56;;;;;;;8.32;4.78;;;;;;;5.19;100.00;99160.38;5011996;28;20034;-80
2022/12/20 04:33:22;;;;;;;9.18;4.72;;;;;;;5.10;100.00;99147.91;5018866;28;20487;-80
2022/12/20 04:35:47;;;;;;;8.90;4.65;;;;;;;5.24;100.00;99154.53;5025223;28;20391;-75
2022/12/20 04:38:13;;;;;;;8.52;4.70;;;;;;;5.26;100.00;99161.41;5012885;28;20033;-75
2022/12/20 04:40:39;;;;;;;8.10;4.75;;;;;;;5.17;100.00;99145.44;5021346;28;20029;-80
2022/12/20 04:43:04;;;;;;;10.25;5.85;;;;;;;5.03;100.00;99149.53;5019507;28;20117;-78
2022/12/20 04:45:30;;;;;;;8.98;5.18;;;;;;;4.87;100.00;99138.72;4995246;28;20022;-76
2022/12/20 04:47:55;;;;;;;9.75;5.28;;;;;;;4.77;100.00;99133.50;4999824;28;20033;-76
2022/12/20 04:50:20;;;;;;;11.75;5.40;;;;;;;4.75;100.00;99136.34;5013524;28;20367;-75
2022/12/20 04:55:30;;;;;;;12.52;5.70;;;;;;;4.45;100.00;99134.94;5027501;28;20518;-76
2022/12/20 04:57:55;;;;;;;11.20;5.75;;;;;;;4.37;100.00;99118.81;5011495;28;20100;-75
2022/12/20 05:00:21;;;;;;;10.57;5.72;;;;;;;4.27;100.00;99113.56;5001427;28;20072;-76
2022/12/20 05:02:46;;;;;;;9.98;5.22;;;;;;;4.23;100.00;99116.69;5011993;28;20044;-77
2022/12/20 05:05:12;;;;;;;12.25;5.40;;;;;;;4.25;100.00;99112.03;4996044;28;20472;-76
2022/12/20 05:07:38;;;;;;;12.95;5.78;;;;;;;4.30;100.00;99117.78;5012339;28;20464;-77
2022/12/20 05:10:04;;;;;;;9.57;5.32;;;;;;;4.27;100.00;99112.69;4996152;28;20029;-75
2022/12/20 05:12:29;;;;;;;11.02;5.68;;;;;;;4.20;100.00;99103.63;5005095;28;20018;-75
2022/12/20 05:14:55;;;;;;;9.75;5.53;;;;;;;4.33;100.00;99123.66;5001263;28;20412;-75
2022/12/20 05:17:20;;;;;;;10.48;4.82;;;;;;;4.43;100.00;99126.25;5011786;28;20053;-75
2022/12/20 05:19:46;;;;;;;9.82;4.63;;;;;;;4.43;100.00;99107.50;5006249;28;20048;-78
2022/12/20 05:27:39;;;;;;;10.00;4.88;;;;;;;4.64;100.00;99111.63;5012604;28;20064;-76
2022/12/20 05:30:05;;;;;;;9.88;5.32;;;;;;;4.60;100.00;99106.56;5004416;28;20475;-78
2022/12/20 05:32:30;;;;;;;13.80;5.13;;;;;;;4.53;100.00;99108.22;5013271;28;20479;-75
2022/12/20 05:34:55;;;;;;;10.05;5.07;;;;;;;4.33;100.00;99074.59;5012971;28;20108;-75
2022/12/20 05:37:21;;;;;;;14.38;5.68;;;;;;;4.45;100.00;99092.06;5013202;28;20026;-75
2022/12/20 05:39:46;;;;;;;10.10;5.00;;;;;;;4.48;100.00;99099.81;4998625;28;20029;-75
2022/12/20 05:42:11;;;;;;;10.05;4.93;;;;;;;4.42;100.00;99103.09;5000064;28;20030;-74
2022/12/20 05:47:20;;;;;;;11.07;5.30;;;;;;;4.29;100.00;99102.69;5015502;28;20538;-75
2022/12/20 05:49:46;;;;;;;10.38;4.80;;;;;;;4.29;100.00;99089.28;5010791;28;20033;-76
2022/12/20 05:52:11;;;;;;;9.32;4.60;;;;;;;4.34;100.00;99097.69;4995792;28;20038;-75
2022/12/20 05:54:36;;;;;;;10.93;5.38;;;;;;;4.42;100.00;99102.28;5000416;28;20030;-75
2022/12/20 05:57:02;;;;;;;9.15;4.85;;;;;;;4.35;100.00;99099.41;5006137;28;20022;-76
2022/12/20 05:59:27;;;;;;;7.28;4.20;;;;;;;4.36;100.00;99101.06;4990087;28;20455;-76
2022/12/20 06:01:53;;;;;;;9.43;4.63;;;;;;;4.41;100.00;99085.38;5009758;28;20058;-75
2022/12/20 06:04:19;;;;;;;12.00;5.43;;;;;;;4.57;100.00;99106.91;5011048;28;20053;-76
2022/12/20 06:06:44;;;;;;;9.07;4.60;;;;;;;4.60;100.00;99101.22;4992821;28;20419;-74
2022/12/20 06:09:10;;;;;;;9.00;4.82;;;;;;;4.63;100.00;99078.63;5011579;28;20029;-76
2022/12/20 06:11:36;;;;;;;10.30;4.55;;;;;;;4.74;100.00;99085.56;5001892;28;20029;-72
2022/12/20 06:14:01;;;;;;;8.57;4.30;;;;;;;4.91;100.00;99090.00;5014697;28;20018;-76
2022/12/20 06:16:26;;;;;;;8.82;4.50;;;;;;;5.02;100.00;99099.59;5012277;28;20034;-77
2022/12/20 06:18:52;;;;;;;9.48;4.53;;;;;;;5.02;100.00;99089.72;5011378;28;20095;-75
2022/12/20 06:21:18;;;;;;;8.35;3.95;;;;;;;5.14;100.00;99078.72;5010695;28;20483;-77
2022/12/20 06:23:43;;;;;;;9.52;4.20;;;;;;;5.00;100.00;99075.66;5011133;28;20030;-77
2022/12/20 06:26:08;;;;;;;7.68;4.20;;;;;;;5.17;100.00;99092.63;4998064;28;20030;-77
2022/12/20 06:28:41;;;;;;;9.15;4.20;;;;;;;5.07;100.00;99085.72;4988899;28;20026;-78
2022/12/20 06:31:08;;;;;;;7.05;4.05;;;;;;;5.03;100.00;99080.69;5008797;28;20147;-70
2022/12/20 06:33:34;;;;;;;9.90;4.50;;;;;;;5.01;100.00;99085.38;5014095;28;20061;-77
2022/12/20 06:35:59;;;;;;;7.57;4.00;;;;;;;4.98;100.00;99104.47;5010953;28;20030;-76
2022/12/20 06:38:24;;;;;;;9.38;4.88;;;;;;;4.86;100.00;99100.38;4997423;28;20034;-78
2022/12/20 06:40:50;;;;;;;11.07;5.18;;;;;;;4.80;100.00;99098.34;4995766;28;20053;-77
2022/12/20 06:43:15;;;;;;;10.02;5.60;;;;;;;4.72;100.00;99109.84;5010988;28;20088;-77
2022/12/20 06:45:41;;;;;;;10.75;4.60;;;;;;;4.73;100.00;99097.28;5010611;28;20026;-78
2022/12/20 06:48:06;;;;;;;9.63;4.97;;;;;;;4.73;100.00;99095.44;5014873;28;20044;-78
2022/12/20 06:50:32;;;;;;;10.93;5.55;;;;;;;4.78;100.00;99095.81;5001365;28;20033;-74
2022/12/20 06:52:57;;;;;;;14.82;6.45;;;;;;;4.95;100.00;99107.47;5004813;28;20487;-77
2022/12/20 06:55:22;;;;;;;24.40;8.68;;;;;;;4.86;100.00;99103.06;4999749;28;20040;-76
2022/12/20 06:57:48;;;;;;;18.83;8.00;;;;;;;4.87;100.00;99106.56;5006228;28;20094;-75
2022/12/20 07:00:14;;;;;;;16.63;7.95;;;;;;;4.81;100.00;99114.25;4992747;28;20022;-78
2022/12/20 07:02:39;;;;;;;19.23;8.27;;;;;;;4.77;100.00;99106.69;4993353;28;20030;-76
2022/12/20 07:05:05;;;;;;;14.38;7.07;;;;;;;4.79;100.00;99115.41;4985610;28;20068;-75
2022/12/20 07:07:30;;;;;;;14.13;6.43;;;;;;;4.68;100.00;99113.00;4998387;28;20752;-77
2022/12/20 07:09:55;;;;;;;10.18;4.60;;;;;;;4.71;100.00;99113.50;5013634;28;20030;-75
2022/12/20 07:12:21;;;;;;;9.55;4.13;;;;;;;4.67;100.00;99105.97;4974773;28;20081;-76
2022/12/20 07:14:46;;;;;;;8.25;4.70;;;;;;;4.71;100.00;99108.16;4994566;28;20024;-78
2022/12/20 07:17:12;;;;;;;9.43;3.90;;;;;;;4.88;100.00;99101.06;5003816;28;20026;-76
2022/12/20 07:19:37;;;;;;;9.07;4.40;;;;;;;5.03;100.00;99093.22;4997432;28;20091;-78
2022/12/20 07:22:04;;;;;;;8.18;3.95;;;;;;;5.31;100.00;99104.59;4987566;28;20030;-75
2022/12/20 07:24:29;;;;;;;10.18;3.63;;;;;;;5.26;100.00;99074.72;5011338;28;20053;-76
2022/12/20 07:26:55;;;;;;;6.97;3.70;;;;;;;5.48;100.00;99090.22;5010832;28;20086;-77
2022/12/20 07:29:20;;;;;;;9.18;4.18;;;;;;;5.62;100.00;99091.44;5010411;28;20034;-76
2022/12/20 07:31:45;;;;;;;9.15;3.97;;;;;;;5.57;100.00;99082.19;5001849;28;20510;-76
2022/12/20 07:34:11;;;;;;;9.93;4.15;;;;;;;5.51;100.00;99077.50;5010242;28;20079;-78
2022/12/20 07:36:36;;;;;;;7.22;3.85;;;;;;;5.54;100.00;99104.00;5026348;28;20017;-76
2022/12/20 07:39:02;;;;;;;9.93;4.47;;;;;;;5.44;100.00;99082.66;5017053;28;20486;-77
2022/12/20 07:41:27;;;;;;;9.32;4.80;;;;;;;5.53;100.00;99102.28;4994842;28;20438;-76
2022/12/20 07:43:52;;;;;;;9.85;4.28;;;;;;;5.49;100.00;99091.91;5000678;28;20029;-77
2022/12/20 07:46:18;;;;;;;7.47;3.85;;;;;;;5.54;100.00;99078.00;4993090;28;20072;-76
2022/12/20 07:48:44;;;;;;;10.55;5.13;;;;;;;5.68;100.00;99092.59;4996815;28;20494;-74
2022/12/20 07:51:14;;;;;;;10.05;4.63;;;;;;;5.78;100.00;99079.03;5001268;28;20033;-74
2022/12/20 07:53:45;;;;;;;10.93;4.45;;;;;;;5.78;100.00;99074.50;5011975;28;20077;-74
2022/12/20 07:56:12;;;;;;;8.15;4.40;;;;;;;5.86;100.00;99071.81;5030858;28;20034;-74
2022/12/20 07:58:40;;;;;;;13.50;5.07;;;;;;;5.99;100.00;99075.91;5016684;28;20084;-73
2022/12/20 08:01:07;;;;;;;8.70;4.25;;;;;;;6.14;100.00;99077.75;5003820;28;20041;-75
2022/12/20 08:03:39;;;;;;;6.63;3.20;;;;;;;6.30;100.00;99068.84;4993767;28;20164;-73
2022/12/20 08:09:30;;;;;;;7.88;3.90;;;;;;;6.84;100.00;99084.38;5030682;28;20710;-75
2022/12/20 08:11:57;;;;;;;6.82;3.13;;;;;;;6.95;100.00;99088.53;5014894;28;20026;-75
2022/12/20 08:14:22;;;;;;;6.25;3.40;;;;;;;6.96;100.00;99090.22;5016675;28;20451;-78
2022/12/20 08:16:47;;;;;;;11.85;3.85;;;;;;;7.08;100.00;99067.31;5008569;28;20022;-78
2022/12/20 08:19:25;;;;;;;9.15;3.22;;;;;;;7.16;100.00;99072.66;5005775;28;20030;-81
2022/12/20 08:22:28;;;;;;;7.78;3.70;;;;;;;7.29;100.00;99082.88;5039291;28;20021;-81
2022/12/20 08:24:54;;;;;;;8.93;3.97;;;;;;;7.26;100.00;99050.94;5015955;28;20030;-74
2022/12/20 08:27:19;;;;;;;8.02;3.75;;;;;;;7.48;100.00;99054.66;5021992;28;20373;-75
2022/12/20 08:29:44;;;;;;;7.80;3.10;;;;;;;7.76;100.00;99070.31;5012891;28;20072;-73
2022/12/20 08:32:11;;;;;;;10.50;4.30;;;;;;;7.75;100.00;99065.94;5010792;28;20029;-73
2022/12/20 08:34:37;;;;;;;7.10;3.00;;;;;;;7.77;100.00;99036.97;5015005;28;20027;-78
2022/12/20 08:37:02;;;;;;;11.25;2.88;;;;;;;7.94;100.00;99040.38;5000647;28;20024;-82
2022/12/20 08:39:49;;;;;;;5.43;2.45;;;;;;;8.05;100.00;99042.66;5023721;28;20060;-81
2022/12/20 08:42:14;;;;;;;4.93;2.67;;;;;;;8.07;100.00;99046.84;5013622;28;20056;-79
2022/12/20 08:44:40;;;;;;;6.07;3.00;;;;;;;8.08;100.00;99048.50;5014978;28;20427;-75
2022/12/20 08:47:05;;;;;;;9.18;3.08;;;;;;;8.07;100.00;99043.31;5014252;28;20025;-75
2022/12/20 08:49:31;;;;;;;7.70;3.30;;;;;;;8.17;100.00;99045.72;5028665;28;20041;-76
2022/12/20 08:51:56;;;;;;;5.32;2.92;;;;;;;8.16;100.00;99044.91;5040695;28;20001;-76
2022/12/20 08:54:21;;;;;;;6.72;2.92;;;;;;;8.17;100.00;99049.25;5042766;28;20021;-81
2022/12/20 08:56:47;;;;;;;10.48;3.83;;;;;;;8.21;100.00;99041.66;5036804;28;20010;-75
2022/12/20 08:59:12;;;;;;;8.55;3.17;;;;;;;8.22;100.00;99036.06;5009248;28;20036;-74
2022/12/20 09:01:38;;;;;;;6.75;3.13;;;;;;;8.25;100.00;99018.72;5001424;28;20040;-74
2022/12/20 09:04:03;;;;;;;6.30;2.88;;;;;;;8.34;100.00;99014.94;5018600;28;20022;-80
2022/12/20 09:06:29;;;;;;;4.85;2.85;;;;;;;8.45;100.00;99001.00;4993363;28;20045;-74
2022/12/20 09:08:54;;;;;;;7.47;3.08;;;;;;;8.56;100.00;99005.94;5007510;28;20030;-74
2022/12/20 09:11:23;;;;;;;5.85;2.50;;;;;;;8.76;100.00;99005.41;5013752;28;20507;-76
2022/12/20 09:13:51;;;;;;;4.18;2.40;;;;;;;9.03;100.00;99008.44;5004476;28;20040;-75
2022/12/20 09:16:19;;;;;;;6.15;2.92;;;;;;;9.02;100.00;99010.31;5008415;28;20498;-73
2022/12/20 09:18:48;;;;;;;6.60;2.85;;;;;;;8.95;100.00;98996.72;5000279;28;20492;-73
2022/12/20 09:21:14;;;;;;;7.68;3.97;;;;;;;8.86;100.00;98986.25;5031813;28;20025;-73
2022/12/20 09:23:39;;;;;;;8.75;2.95;;;;;;;8.81;100.00;98978.69;5035043;28;20691;-73
2022/12/20 09:26:13;;;;;;;10.85;3.60;;;;;;;8.90;100.00;98995.63;5032573;28;20021;-72
2022/12/20 09:28:39;;;;;;;7.22;3.33;;;;;;;8.80;100.00;98990.50;4997034;28;20040;-74
2022/12/20 09:31:10;;;;;;;8.50;2.85;;;;;;;8.78;100.00;99003.34;5013212;28;20100;-74
2022/12/20 09:33:35;;;;;;;6.60;2.80;;;;;;;8.77;100.00;99009.75;5013111;28;20025;-73
2022/12/20 09:36:02;;;;;;;5.45;2.60;;;;;;;8.84;100.00;99016.09;5013750;28;20448;-73
2022/12/20 09:38:29;;;;;;;5.93;3.08;;;;;;;8.73;100.00;99005.78;4991354;28;20496;-73
2022/12/20 09:40:58;;;;;;;10.82;3.70;;;;;;;8.81;100.00;99007.53;4992611;28;20030;-74
2022/12/20 09:43:24;;;;;;;5.20;2.83;;;;;;;8.77;100.00;99009.75;4994090;28;20030;-72
2022/12/20 09:45:56;;;;;;;5.18;2.80;;;;;;;8.66;100.00;99005.66;4976879;28;20037;-72
2022/12/20 09:48:29;;;;;;;6.80;3.13;;;;;;;8.71;100.00;99011.34;5009538;28;20044;-72
2022/12/20 09:51:53;;;;;;;6.78;2.95;;;;;;;8.81;100.00;98997.59;5006985;28;20065;-72
2022/12/20 09:54:35;;;;;;;9.77;2.78;;;;;;;8.59;100.00;98988.56;4976666;28;20581;-72
2022/12/20 09:57:22;;;;;;;5.97;2.70;;;;;;;8.67;100.00;98996.56;5011247;28;20084;-73
2022/12/20 09:59:48;;;;;;;9.25;2.60;;;;;;;8.67;100.00;98993.03;5000813;28;20113;-74
2022/12/20 10:02:18;;;;;;;8.82;2.95;;;;;;;8.70;100.00;98995.38;5011627;28;20053;-74
2022/12/20 10:04:44;;;;;;;5.03;2.85;;;;;;;8.73;100.00;98978.81;4995302;28;20720;-73
2022/12/20 10:07:38;;;;;;;6.72;2.70;;;;;;;8.76;100.00;98992.75;5005964;28;20042;-74
2022/12/20 10:10:24;;;;;;;11.90;3.17;;;;;;;8.81;100.00;98976.00;5014704;28;20080;-73
2022/12/20 10:13:23;;;;;;;5.38;2.92;;;;;;;8.92;100.00;98977.38;5014977;28;20534;-74
2022/12/20 10:15:57;;;;;;;7.20;2.70;;;;;;;8.89;100.00;98986.69;5016045;28;20041;-74
2022/12/20 10:19:10;;;;;;;4.53;2.80;;;;;;;8.91;100.00;98986.50;5034066;28;20026;-73
2022/12/20 10:21:59;;;;;;;7.03;2.58;;;;;;;8.90;100.00;98974.84;4939958;28;20118;-73
2022/12/20 10:24:32;;;;;;;6.50;2.58;;;;;;;8.83;100.00;98959.59;4994527;28;20027;-73
2022/12/20 10:27:15;;;;;;;5.47;2.78;;;;;;;8.93;100.00;98987.13;4994289;28;20036;-74
2022/12/20 10:29:40;;;;;;;6.20;2.83;;;;;;;8.96;100.00;98984.06;5022731;28;20026;-74
2022/12/20 10:32:12;;;;;;;5.65;3.15;;;;;;;9.00;100.00;98980.78;5007525;28;20028;-73
2022/12/20 10:34:37;;;;;;;4.50;2.40;;;;;;;8.86;100.00;98956.56;4995867;28;20116;-73
2022/12/20 10:37:14;;;;;;;5.18;3.10;;;;;;;9.09;100.00;98975.28;5010080;28;20102;-73
2022/12/20 10:39:47;;;;;;;7.40;2.60;;;;;;;9.08;100.00;98985.25;4993442;28;20715;-73
2022/12/20 10:42:25;;;;;;;7.50;3.67;;;;;;;9.26;100.00;98973.22;4993504;28;20026;-74
2022/12/20 10:44:51;;;;;;;7.55;3.13;;;;;;;9.41;100.00;98958.63;5005193;28;20044;-74
2022/12/20 10:47:37;;;;;;;5.65;3.10;;;;;;;9.51;100.00;98954.75;5003235;28;20030;-74
2022/12/20 10:50:13;;;;;;;6.90;3.00;;;;;;;9.48;100.00;98942.47;4995920;28;20100;-75
2022/12/20 10:52:38;;;;;;;7.65;3.28;;;;;;;9.38;100.00;98937.41;5006163;28;20093;-76
2022/12/20 10:55:33;;;;;;;10.02;4.22;;;;;;;9.50;100.00;98936.91;5006009;28;20081;-75
2022/12/20 10:58:04;;;;;;;5.68;2.78;;;;;;;9.43;100.00;98918.78;5010809;28;20053;-75
2022/12/20 11:00:31;;;;;;;4.43;2.85;;;;;;;9.49;100.00;98936.06;5011043;28;20029;-75
2022/12/20 11:03:23;;;;;;;7.18;2.97;;;;;;;9.47;100.00;98934.59;5011865;28;20037;-76
2022/12/20 11:05:54;;;;;;;5.57;2.80;;;;;;;9.35;100.00;98937.81;5009092;28;20042;-75
2022/12/20 11:08:23;;;;;;;5.07;2.63;;;;;;;9.26;100.00;98932.72;4999651;28;20065;-74
2022/12/20 11:14:32;;;;;;;6.93;2.70;;;;;;;9.43;100.00;98918.78;4945948;28;20049;-76
2022/12/20 11:16:59;;;;;;;5.07;2.63;;;;;;;9.52;100.00;98905.97;4942003;28;20027;-75
2022/12/20 11:20:02;;;;;;;3.58;2.35;;;;;;;9.46;100.00;98889.69;4997789;28;20042;-78
2022/12/20 11:22:38;;;;;;;5.55;2.90;;;;;;;9.41;100.00;98920.00;5012262;28;20056;-74
2022/12/20 11:32:30;;;;;;;4.68;2.70;;;;;;;9.42;100.00;98908.16;5035222;28;20056;-79
2022/12/20 11:35:37;;;;;;;8.02;3.45;;;;;;;9.56;100.00;98890.19;5001119;28;20041;-85
2022/12/20 11:38:37;;;;;;;10.75;4.22;;;;;;;9.61;100.00;98895.84;5038684;22;20064;-65
2022/12/20 11:41:15;;;;;;;9.50;4.18;;;;;;;9.59;100.00;98889.84;5017240;28;20033;-65
2022/12/20 11:43:58;;;;;;;7.90;3.42;;;;;;;9.56;100.00;98876.69;5004861;28;20037;-65
2022/12/20 11:47:09;;;;;;;9.57;3.55;;;;;;;9.58;100.00;98882.75;4989048;28;20042;-65
2022/12/20 11:49:46;;;;;;;7.47;3.25;;;;;;;9.54;100.00;98885.00;4989454;28;20489;-65
2022/12/20 11:52:33;;;;;;;10.65;3.85;;;;;;;9.50;100.00;98874.78;4992195;28;20033;-65
2022/12/20 11:55:08;;;;;;;8.10;3.70;;;;;;;9.50;100.00;98864.81;4996368;28;20033;-65
2022/12/20 11:57:53;;;;;;;5.03;2.65;;;;;;;9.43;100.00;98847.72;5012476;28;20096;-63
2022/12/20 12:00:25;;;;;;;8.73;3.85;;;;;;;9.31;100.00;98831.22;5011712;28;20033;-63
2022/12/20 12:03:02;;;;;;;6.72;2.65;;;;;;;9.40;100.00;98834.59;5002454;28;20087;-62
2022/12/20 12:05:45;;;;;;;8.23;3.25;;;;;;;9.57;100.00;98836.00;4992841;28;20390;-62
2022/12/20 12:08:17;;;;;;;6.70;2.78;;;;;;;9.65;100.00;98824.22;4991367;28;20040;-62